createdAt,value
2023-05-14T00:01:35.411Z,3.40
2023-05-14T00:04:02.430Z,3.30
2023-05-14T00:06:29.628Z,3.10
2023-05-14T00:08:56.690Z,3.55
2023-05-14T00:11:23.932Z,2.92
2023-05-14T00:13:52.107Z,3.33
2023-05-14T00:16:19.383Z,3.15
2023-05-14T00:18:46.293Z,3.30
2023-05-14T00:21:13.316Z,2.97
2023-05-14T00:23:40.477Z,3.00
2023-05-14T00:26:07.479Z,3.25
2023-05-14T00:28:34.843Z,3.15
2023-05-14T00:31:03.197Z,2.95
2023-05-14T00:33:30.947Z,3.08
2023-05-14T00:35:58.006Z,3.15
2023-05-14T00:38:24.829Z,3.22
2023-05-14T00:40:51.741Z,3.33
2023-05-14T00:43:19.341Z,3.28
2023-05-14T00:45:47.262Z,3.45
2023-05-14T00:48:15.839Z,3.20
2023-05-14T00:50:43.084Z,3.75
2023-05-14T00:53:10.972Z,3.45
2023-05-14T00:55:39.013Z,3.40
2023-05-14T00:58:10.476Z,3.58
2023-05-14T01:00:38.910Z,3.67
2023-05-14T01:03:07.249Z,3.40
2023-05-14T01:05:46.706Z,3.08
2023-05-14T01:08:40.355Z,3.35
2023-05-14T01:11:16.926Z,3.38
2023-05-14T01:13:57.933Z,3.22
2023-05-14T01:16:28.160Z,3.42
2023-05-14T01:18:58.024Z,3.28
2023-05-14T01:21:36.042Z,3.15
2023-05-14T01:24:03.825Z,3.65
2023-05-14T01:26:31.344Z,3.20
2023-05-14T01:32:00.566Z,3.30
2023-05-14T01:34:30.504Z,3.05
2023-05-14T01:37:00.701Z,2.97
2023-05-14T01:39:28.116Z,3.15
2023-05-14T01:41:56.234Z,3.13
2023-05-14T01:44:24.379Z,3.22
2023-05-14T01:46:51.173Z,3.15
2023-05-14T01:49:18.378Z,3.03
2023-05-14T01:51:45.955Z,2.88
2023-05-14T01:54:14.223Z,3.15
2023-05-14T01:56:41.121Z,2.95
2023-05-14T01:59:08.213Z,3.08
2023-05-14T02:01:35.856Z,3.15
2023-05-14T02:04:03.007Z,2.97
2023-05-14T02:06:36.175Z,3.22
2023-05-14T02:09:06.014Z,3.03
2023-05-14T02:11:34.855Z,2.80
2023-05-14T02:14:01.676Z,3.28
2023-05-14T02:16:29.019Z,3.47
2023-05-14T02:18:56.037Z,3.03
2023-05-14T02:21:23.431Z,2.83
2023-05-14T02:23:50.752Z,3.38
2023-05-14T02:26:17.652Z,3.17
2023-05-14T02:28:46.779Z,3.30
2023-05-14T02:31:13.978Z,3.00
2023-05-14T02:33:42.104Z,3.35
2023-05-14T02:36:09.283Z,3.08
2023-05-14T02:38:36.138Z,3.53
2023-05-14T02:41:03.311Z,3.50
2023-05-14T02:43:33.439Z,3.45
2023-05-14T02:46:01.772Z,3.17
2023-05-14T02:48:28.713Z,3.20
2023-05-14T02:50:56.671Z,3.17
2023-05-14T02:53:24.454Z,3.20
2023-05-14T02:55:51.464Z,3.15
2023-05-14T02:58:18.818Z,3.63
2023-05-14T03:00:52.494Z,3.42
2023-05-14T03:03:21.270Z,3.33
2023-05-14T03:05:49.664Z,3.70
2023-05-14T03:08:16.792Z,3.15
2023-05-14T03:10:43.820Z,3.40
2023-05-14T03:13:10.906Z,3.50
2023-05-14T03:15:38.061Z,3.15
2023-05-14T03:18:06.829Z,3.47
2023-05-14T03:20:35.414Z,3.20
2023-05-14T03:23:02.654Z,3.72
2023-05-14T03:25:29.839Z,3.45
2023-05-14T03:27:58.267Z,3.45
2023-05-14T03:30:25.566Z,3.35
2023-05-14T03:32:53.459Z,3.63
2023-05-14T03:35:21.324Z,3.47
2023-05-14T03:37:49.462Z,3.28
2023-05-14T03:40:16.669Z,3.55
2023-05-14T03:42:43.672Z,3.67
2023-05-14T03:45:11.140Z,3.42
2023-05-14T03:47:40.679Z,3.47
2023-05-14T03:50:09.229Z,3.15
2023-05-14T03:52:36.355Z,3.65
2023-05-14T03:55:05.574Z,3.33
2023-05-14T04:00:02.795Z,3.58
2023-05-14T04:02:49.592Z,3.70
2023-05-14T04:05:16.742Z,3.47
2023-05-14T04:07:43.909Z,3.33
2023-05-14T04:10:13.275Z,3.78
2023-05-14T04:12:40.257Z,3.72
2023-05-14T04:15:10.188Z,3.63
2023-05-14T04:17:37.347Z,3.65
2023-05-14T04:20:06.210Z,3.65
2023-05-14T04:22:34.062Z,4.20
2023-05-14T04:25:03.319Z,4.25
2023-05-14T04:27:33.570Z,4.40
2023-05-14T04:30:09.745Z,3.47
2023-05-14T04:32:39.406Z,3.63
2023-05-14T04:35:08.285Z,3.97
2023-05-14T04:37:35.282Z,3.53
2023-05-14T04:40:02.395Z,3.83
2023-05-14T04:42:30.607Z,3.88
2023-05-14T04:44:57.579Z,3.90
2023-05-14T04:47:24.716Z,3.80
2023-05-14T04:49:51.990Z,3.65
2023-05-14T04:52:19.194Z,3.42
2023-05-14T04:54:46.101Z,3.72
2023-05-14T04:57:14.795Z,3.75
2023-05-14T04:59:43.298Z,3.90
2023-05-14T05:02:10.340Z,3.90
2023-05-14T05:04:37.321Z,3.80
2023-05-14T05:07:05.100Z,4.32
2023-05-14T05:09:32.009Z,4.20
2023-05-14T05:11:58.890Z,4.07
2023-05-14T05:14:25.774Z,4.38
2023-05-14T05:16:54.132Z,4.07
2023-05-14T05:19:35.690Z,4.50
2023-05-14T05:22:07.051Z,4.03
2023-05-14T05:24:34.313Z,4.55
2023-05-14T05:27:01.286Z,3.83
2023-05-14T05:29:28.262Z,3.92
2023-05-14T05:31:56.835Z,4.32
2023-05-14T05:34:23.938Z,4.28
2023-05-14T05:36:51.060Z,4.10
2023-05-14T05:39:18.039Z,4.10
2023-05-14T05:41:44.834Z,4.22
2023-05-14T05:44:12.356Z,3.83
2023-05-14T05:46:39.233Z,4.20
2023-05-14T05:49:07.429Z,4.00
2023-05-14T05:51:34.597Z,3.83
2023-05-14T05:54:01.384Z,4.15
2023-05-14T05:56:28.466Z,4.03
2023-05-14T05:58:55.276Z,4.00
2023-05-14T06:01:22.213Z,3.42
2023-05-14T06:03:49.014Z,4.15
2023-05-14T06:06:17.973Z,3.92
2023-05-14T06:08:44.845Z,4.63
2023-05-14T06:11:11.912Z,4.25
2023-05-14T06:13:39.135Z,4.28
2023-05-14T06:16:06.542Z,4.07
2023-05-14T06:18:33.494Z,4.32
2023-05-14T06:21:00.664Z,3.97
2023-05-14T06:23:30.627Z,4.60
2023-05-14T06:25:57.511Z,3.97
2023-05-14T06:28:24.704Z,4.30
2023-05-14T06:30:51.629Z,4.45
2023-05-14T06:33:20.571Z,4.25
2023-05-14T06:35:47.589Z,3.92
2023-05-14T06:38:14.538Z,4.03
2023-05-14T06:40:42.897Z,3.65
2023-05-14T06:43:11.068Z,4.10
2023-05-14T06:45:40.455Z,4.18
2023-05-14T06:48:07.436Z,4.22
2023-05-14T06:50:36.705Z,4.20
2023-05-14T06:53:03.501Z,3.97
2023-05-14T06:55:31.403Z,3.58
2023-05-14T06:57:59.711Z,4.38
2023-05-14T07:00:28.026Z,4.35
2023-05-14T07:02:55.555Z,3.72
2023-05-14T07:05:22.716Z,4.30
2023-05-14T07:07:49.530Z,3.53
2023-05-14T07:10:16.538Z,3.78
2023-05-14T07:12:44.080Z,3.70
2023-05-14T07:15:12.478Z,3.50
2023-05-14T07:17:39.324Z,3.60
2023-05-14T07:20:08.027Z,3.70
2023-05-14T07:22:35.071Z,3.35
2023-05-14T07:25:02.088Z,3.22
2023-05-14T07:30:23.607Z,3.60
2023-05-14T07:32:50.776Z,3.63
2023-05-14T07:35:18.127Z,3.65
2023-05-14T07:37:45.311Z,3.60
2023-05-14T07:40:12.738Z,3.58
2023-05-14T07:42:40.451Z,3.20
2023-05-14T07:45:09.253Z,3.08
2023-05-14T07:47:37.596Z,3.83
2023-05-14T07:50:05.539Z,3.40
2023-05-14T07:52:32.412Z,3.13
2023-05-14T07:54:59.678Z,3.40
2023-05-14T07:57:26.734Z,3.20
2023-05-14T07:59:53.753Z,3.17
2023-05-14T08:02:20.772Z,3.20
2023-05-14T08:04:51.413Z,2.97
2023-05-14T08:07:18.366Z,2.70
2023-05-14T08:09:45.557Z,3.13
2023-05-14T08:12:12.390Z,3.05
2023-05-14T08:14:39.419Z,3.00
2023-05-14T08:17:06.356Z,2.85
2023-05-14T08:19:33.387Z,2.70
2023-05-14T08:22:01.603Z,3.10
2023-05-14T08:24:28.716Z,2.80
2023-05-14T08:26:55.963Z,2.78
2023-05-14T08:32:22.893Z,2.97
2023-05-14T08:34:51.878Z,2.95
2023-05-14T08:37:20.341Z,2.67
2023-05-14T08:39:47.954Z,2.80
2023-05-14T08:42:20.590Z,2.53
2023-05-14T08:44:49.695Z,2.65
2023-05-14T08:47:21.184Z,2.47
2023-05-14T08:49:56.881Z,2.47
2023-05-14T08:52:25.521Z,2.67
2023-05-14T08:54:53.193Z,2.63
2023-05-14T08:57:22.631Z,2.53
2023-05-14T08:59:49.832Z,2.50
2023-05-14T09:02:20.930Z,2.70
2023-05-14T09:04:56.358Z,2.78
2023-05-14T09:07:25.533Z,2.63
2023-05-14T09:09:53.481Z,2.85
2023-05-14T09:12:21.365Z,3.13
2023-05-14T09:14:50.051Z,2.95
2023-05-14T09:17:18.329Z,2.75
2023-05-14T09:19:47.271Z,2.60
2023-05-14T09:22:17.457Z,2.60
2023-05-14T09:24:46.343Z,2.53
2023-05-14T09:27:19.312Z,2.17
2023-05-14T09:29:47.513Z,2.13
2023-05-14T09:32:14.922Z,2.33
2023-05-14T09:34:42.324Z,2.33
2023-05-14T09:37:10.230Z,2.33
2023-05-14T09:39:40.028Z,2.40
2023-05-14T09:42:08.812Z,2.47
2023-05-14T09:44:35.771Z,2.22
2023-05-14T09:47:02.885Z,2.25
2023-05-14T09:49:29.961Z,2.40
2023-05-14T09:51:56.836Z,2.40
2023-05-14T09:54:26.647Z,2.35
2023-05-14T09:56:55.610Z,2.13
2023-05-14T09:59:24.538Z,2.28
2023-05-14T10:01:52.406Z,2.10
2023-05-14T10:04:20.505Z,2.20
2023-05-14T10:06:51.976Z,2.20
2023-05-14T10:09:21.521Z,2.00
2023-05-14T10:11:54.040Z,2.20
2023-05-14T10:14:33.415Z,2.20
2023-05-14T10:17:03.392Z,2.10
2023-05-14T10:19:34.367Z,1.90
2023-05-14T10:22:07.056Z,1.80
2023-05-14T10:24:35.594Z,2.20
2023-05-14T10:27:03.176Z,2.03
2023-05-14T10:29:34.350Z,2.10
2023-05-14T10:32:06.102Z,2.00
2023-05-14T10:34:36.958Z,1.92
2023-05-14T10:39:45.235Z,2.08
2023-05-14T10:42:15.139Z,2.08
2023-05-14T10:44:50.397Z,1.95
2023-05-14T10:47:18.091Z,1.80
2023-05-14T10:49:47.402Z,1.98
2023-05-14T10:52:17.815Z,1.90
2023-05-14T10:54:50.029Z,2.20
2023-05-14T10:57:18.777Z,1.85
2023-05-14T10:59:49.854Z,2.13
2023-05-14T11:02:23.566Z,1.88
2023-05-14T11:05:17.389Z,2.10
2023-05-14T11:07:47.150Z,2.40
2023-05-14T11:10:16.374Z,2.15
2023-05-14T11:12:46.014Z,2.38
2023-05-14T11:15:18.488Z,2.38
2023-05-14T11:17:47.714Z,2.28
2023-05-14T11:20:15.731Z,2.20
2023-05-14T11:22:44.500Z,2.10
2023-05-14T11:25:13.291Z,2.15
2023-05-14T11:27:42.817Z,2.30
2023-05-14T11:30:15.945Z,2.13
2023-05-14T11:32:46.070Z,2.40
2023-05-14T11:35:13.565Z,2.15
2023-05-14T11:37:40.598Z,2.08
2023-05-14T11:40:14.417Z,2.42
2023-05-14T11:42:42.339Z,2.10
2023-05-14T11:45:12.019Z,2.17
2023-05-14T11:47:41.140Z,2.20
2023-05-14T11:50:09.623Z,2.10
2023-05-14T11:52:41.284Z,2.10
2023-05-14T11:55:12.116Z,2.25
2023-05-14T11:57:39.273Z,2.20
2023-05-14T12:00:09.348Z,2.17
2023-05-14T12:02:37.419Z,1.98
2023-05-14T12:05:08.785Z,2.15
2023-05-14T12:07:36.347Z,2.10
2023-05-14T12:10:05.192Z,2.38
2023-05-14T12:12:36.274Z,2.45
2023-05-14T12:15:11.224Z,2.38
2023-05-14T12:17:38.844Z,2.38
2023-05-14T12:20:10.145Z,2.40
2023-05-14T12:22:37.477Z,2.50
2023-05-14T12:25:11.373Z,2.40
2023-05-14T12:30:38.091Z,2.00
2023-05-14T12:33:05.124Z,2.42
2023-05-14T12:35:33.563Z,2.42
2023-05-14T12:38:00.388Z,2.28
2023-05-14T12:40:27.574Z,2.40
2023-05-14T12:42:56.698Z,2.60
2023-05-14T12:45:24.379Z,2.40
2023-05-14T12:47:51.404Z,2.25
2023-05-14T12:50:18.628Z,2.10
2023-05-14T12:52:47.007Z,2.30
2023-05-14T12:55:13.840Z,2.42
2023-05-14T12:57:41.339Z,2.60
2023-05-14T13:00:10.839Z,2.47
2023-05-14T13:02:42.986Z,2.20
2023-05-14T13:05:11.137Z,2.15
2023-05-14T13:07:38.251Z,2.33
2023-05-14T13:10:08.302Z,2.22
2023-05-14T13:12:35.263Z,2.20
2023-05-14T13:15:02.339Z,2.40
2023-05-14T13:17:29.378Z,2.15
2023-05-14T13:19:56.598Z,2.20
2023-05-14T13:22:23.414Z,2.15
2023-05-14T13:24:50.248Z,2.13
2023-05-14T13:27:19.252Z,2.03
2023-05-14T13:29:46.240Z,2.25
2023-05-14T13:32:13.437Z,2.38
2023-05-14T13:34:40.246Z,2.30
2023-05-14T13:37:07.177Z,2.10
2023-05-14T13:39:34.157Z,2.30
2023-05-14T13:42:01.255Z,2.28
2023-05-14T13:44:29.838Z,2.40
2023-05-14T13:46:56.858Z,2.15
2023-05-14T13:49:23.922Z,2.22
2023-05-14T13:51:50.768Z,2.40
2023-05-14T13:54:17.990Z,2.55
2023-05-14T13:56:45.242Z,2.70
2023-05-14T13:59:12.391Z,2.53
2023-05-14T14:01:40.740Z,2.20
2023-05-14T14:04:07.636Z,2.30
2023-05-14T14:06:34.852Z,2.15
2023-05-14T14:09:01.997Z,1.95
2023-05-14T14:11:29.123Z,2.28
2023-05-14T14:13:56.243Z,2.15
2023-05-14T14:16:23.189Z,2.00
2023-05-14T14:18:51.552Z,2.30
2023-05-14T14:21:18.623Z,2.28
2023-05-14T14:23:46.706Z,2.15
2023-05-14T14:26:13.629Z,2.80
2023-05-14T14:28:40.541Z,2.35
2023-05-14T14:31:07.771Z,2.38
2023-05-14T14:33:34.695Z,2.15
2023-05-14T14:36:03.270Z,2.30
2023-05-14T14:38:30.288Z,2.20
2023-05-14T14:40:57.781Z,2.17
2023-05-14T14:43:25.047Z,2.30
2023-05-14T14:45:52.018Z,2.70
2023-05-14T14:48:27.745Z,2.13
2023-05-14T14:50:55.500Z,2.17
2023-05-14T14:53:24.856Z,2.80
2023-05-14T14:55:52.765Z,2.45
2023-05-14T14:58:21.016Z,2.47
2023-05-14T15:00:48.641Z,2.45
2023-05-14T15:03:15.704Z,2.42
2023-05-14T15:05:42.833Z,2.45
2023-05-14T15:08:09.762Z,2.30
2023-05-14T15:10:38.177Z,2.22
2023-05-14T15:13:07.101Z,2.58
2023-05-14T15:15:35.864Z,2.55
2023-05-14T15:18:04.108Z,2.72
2023-05-14T15:20:31.152Z,2.30
2023-05-14T15:22:58.306Z,2.25
2023-05-14T15:25:27.422Z,2.47
2023-05-14T15:27:55.603Z,2.25
2023-05-14T15:30:22.519Z,2.28
2023-05-14T15:32:50.086Z,2.22
2023-05-14T15:35:17.138Z,2.20
2023-05-14T15:37:45.423Z,2.28
2023-05-14T15:40:13.258Z,2.38
2023-05-14T15:42:42.311Z,2.40
2023-05-14T15:45:14.762Z,2.20
2023-05-14T15:47:41.914Z,2.30
2023-05-14T15:50:09.279Z,2.40
2023-05-14T15:52:37.166Z,2.50
2023-05-14T15:55:06.649Z,2.65
2023-05-14T15:57:34.458Z,2.42
2023-05-14T16:00:01.401Z,2.70
2023-05-14T16:02:39.905Z,2.55
2023-05-14T16:05:08.009Z,2.40
2023-05-14T16:07:36.002Z,2.67
2023-05-14T16:10:03.654Z,2.58
2023-05-14T16:12:31.965Z,2.40
2023-05-14T16:14:59.016Z,2.78
2023-05-14T16:17:32.792Z,2.53
2023-05-14T16:20:04.889Z,2.38
2023-05-14T16:22:31.972Z,2.40
2023-05-14T16:25:01.807Z,2.40
2023-05-14T16:30:49.349Z,2.60
2023-05-14T16:33:16.687Z,2.70
2023-05-14T16:35:44.998Z,2.70
2023-05-14T16:38:12.283Z,2.70
2023-05-14T16:40:39.543Z,2.78
2023-05-14T16:43:12.920Z,2.45
2023-05-14T16:45:45.594Z,2.67
2023-05-14T16:48:12.914Z,2.30
2023-05-14T16:50:39.928Z,2.40
2023-05-14T16:53:08.486Z,2.45
2023-05-14T16:55:35.470Z,2.47
2023-05-14T16:58:02.585Z,2.70
2023-05-14T17:00:29.706Z,2.33
2023-05-14T17:02:57.037Z,2.42
2023-05-14T17:05:24.456Z,2.50
2023-05-14T17:07:51.508Z,2.67
2023-05-14T17:10:20.280Z,2.80
2023-05-14T17:12:54.652Z,2.58
2023-05-14T17:15:22.023Z,2.65
2023-05-14T17:17:49.610Z,2.92
2023-05-14T17:20:17.309Z,3.05
2023-05-14T17:22:44.692Z,2.90
2023-05-14T17:25:12.562Z,2.88
2023-05-14T17:27:41.249Z,2.67
2023-05-14T17:30:09.952Z,3.05
2023-05-14T17:32:37.055Z,2.63
2023-05-14T17:35:05.100Z,3.00
2023-05-14T17:37:32.316Z,2.75
2023-05-14T17:39:59.317Z,3.10
2023-05-14T17:42:26.347Z,3.00
2023-05-14T17:44:54.697Z,2.78
2023-05-14T17:47:24.754Z,2.65
2023-05-14T17:49:52.146Z,3.08
2023-05-14T17:52:21.555Z,2.97
2023-05-14T17:55:31.797Z,3.00
2023-05-14T18:03:04.622Z,3.15
2023-05-14T18:05:19.197Z,3.15
2023-05-14T18:07:49.794Z,3.00
2023-05-14T18:10:17.372Z,3.17
2023-05-14T18:12:50.398Z,3.30
2023-05-14T18:15:24.628Z,3.30
2023-05-14T18:17:55.557Z,3.15
2023-05-14T18:20:32.304Z,2.70
2023-05-14T18:23:08.583Z,2.75
2023-05-14T18:25:38.810Z,2.75
2023-05-14T18:28:06.096Z,3.22
2023-05-14T18:30:33.715Z,3.67
2023-05-14T18:33:08.769Z,3.50
2023-05-14T18:35:35.748Z,3.38
2023-05-14T18:38:02.901Z,3.70
2023-05-14T18:40:35.267Z,3.30
2023-05-14T18:43:04.014Z,3.17
2023-05-14T18:45:31.061Z,2.88
2023-05-14T18:50:50.925Z,2.83
2023-05-14T18:53:18.192Z,3.08
2023-05-14T18:55:45.208Z,3.10
2023-05-14T18:58:14.972Z,3.30
2023-05-14T19:00:42.020Z,2.97
2023-05-14T19:03:09.171Z,3.22
2023-05-14T19:05:39.625Z,2.78
2023-05-14T19:08:08.238Z,2.90
2023-05-14T19:10:35.252Z,2.72
2023-05-14T19:13:02.823Z,2.83
2023-05-14T19:15:29.922Z,3.00
2023-05-14T19:17:57.247Z,3.22
2023-05-14T19:20:25.805Z,3.30
2023-05-14T19:22:52.898Z,3.28
2023-05-14T19:25:21.442Z,3.33
2023-05-14T19:27:48.836Z,3.20
2023-05-14T19:30:16.000Z,3.25
2023-05-14T19:32:43.368Z,2.97
2023-05-14T19:35:10.491Z,4.22
2023-05-14T19:37:37.654Z,3.58
2023-05-14T19:40:06.709Z,3.85
2023-05-14T19:42:35.302Z,3.53
2023-05-14T19:45:02.600Z,3.55
2023-05-14T19:47:30.178Z,3.55
2023-05-14T19:49:57.246Z,3.35
2023-05-14T19:52:24.400Z,3.35
2023-05-14T19:54:51.331Z,3.88
2023-05-14T19:57:18.282Z,3.53
2023-05-14T19:59:47.043Z,3.45
2023-05-14T20:02:17.900Z,3.50
2023-05-14T20:05:10.844Z,3.17
2023-05-14T20:07:40.544Z,3.13
2023-05-14T20:10:11.354Z,3.17
2023-05-14T20:12:38.961Z,3.27
2023-05-14T20:15:09.750Z,3.05
2023-05-14T20:17:38.454Z,3.30
2023-05-14T20:20:07.779Z,3.30
2023-05-14T20:22:35.163Z,3.45
2023-05-14T20:25:02.428Z,3.25
2023-05-14T20:27:29.772Z,3.58
2023-05-14T20:30:22.938Z,3.55
2023-05-14T20:32:50.319Z,3.45
2023-05-14T20:35:17.448Z,3.53
2023-05-14T20:37:44.455Z,3.58
2023-05-14T20:40:12.287Z,3.20
2023-05-14T20:42:39.426Z,3.17
2023-05-14T20:45:07.912Z,3.30
2023-05-14T20:47:37.614Z,3.45
2023-05-14T20:50:05.549Z,3.42
2023-05-14T20:52:32.573Z,3.67
2023-05-14T20:55:01.495Z,3.63
2023-05-14T20:57:29.376Z,3.45
2023-05-14T20:59:56.529Z,3.45
2023-05-14T21:02:24.146Z,3.75
2023-05-14T21:04:52.521Z,3.95
2023-05-14T21:07:19.515Z,3.38
2023-05-14T21:09:46.678Z,3.60
2023-05-14T21:12:13.765Z,3.20
2023-05-14T21:14:41.126Z,3.45
2023-05-14T21:17:08.289Z,3.35
2023-05-14T21:19:35.208Z,3.70
2023-05-14T21:22:03.517Z,3.50
2023-05-14T21:24:31.452Z,3.65
2023-05-14T21:26:58.663Z,3.55
2023-05-14T21:29:25.526Z,3.55
2023-05-14T21:31:52.985Z,3.72
2023-05-14T21:34:20.115Z,3.75
2023-05-14T21:36:47.315Z,3.97
2023-05-14T21:39:15.518Z,3.42
2023-05-14T21:41:42.632Z,3.58
2023-05-14T21:44:09.452Z,3.83
2023-05-14T21:46:36.714Z,4.10
2023-05-14T21:49:03.792Z,3.75
2023-05-14T21:51:30.793Z,3.47
2023-05-14T21:53:57.806Z,3.53
2023-05-14T21:56:26.381Z,3.55
2023-05-14T21:58:53.340Z,3.55
2023-05-14T22:01:20.629Z,3.70
2023-05-14T22:03:47.685Z,3.50
2023-05-14T22:06:15.001Z,3.70
2023-05-14T22:08:41.876Z,3.75
2023-05-14T22:11:08.799Z,3.47
2023-05-14T22:13:37.051Z,3.60
2023-05-14T22:16:12.164Z,3.60
2023-05-14T22:18:40.744Z,3.60
2023-05-14T22:21:07.699Z,3.55
2023-05-14T22:23:34.898Z,3.85
2023-05-14T22:26:02.163Z,3.97
2023-05-14T22:28:29.350Z,3.58
2023-05-14T22:30:57.815Z,3.80
2023-05-14T22:33:25.077Z,3.67
2023-05-14T22:35:52.113Z,3.53
2023-05-14T22:38:19.034Z,4.15
2023-05-14T22:40:46.097Z,4.00
2023-05-14T22:43:13.174Z,3.90
2023-05-14T22:45:40.071Z,3.47
2023-05-14T22:48:08.474Z,3.70
2023-05-14T22:50:35.429Z,3.65
2023-05-14T22:53:02.230Z,3.72
2023-05-14T22:55:29.224Z,3.83
2023-05-14T22:57:57.059Z,3.88
2023-05-14T23:00:24.187Z,4.18
2023-05-14T23:02:51.461Z,3.78
2023-05-14T23:05:19.957Z,3.58
2023-05-14T23:07:47.056Z,3.67
2023-05-14T23:10:14.056Z,3.42
2023-05-14T23:12:40.862Z,3.65
2023-05-14T23:15:08.765Z,3.80
2023-05-14T23:17:35.834Z,3.72
2023-05-14T23:20:03.068Z,3.78
2023-05-14T23:22:31.382Z,3.42
2023-05-14T23:24:58.629Z,3.97
2023-05-14T23:27:25.448Z,3.50
2023-05-14T23:30:17.965Z,3.65
2023-05-14T23:32:45.095Z,4.05
2023-05-14T23:35:12.090Z,3.75
2023-05-14T23:37:40.708Z,3.83
2023-05-14T23:40:09.400Z,3.75
2023-05-14T23:42:36.335Z,3.90
2023-05-14T23:45:04.295Z,3.83
2023-05-14T23:47:31.865Z,3.70
2023-05-14T23:49:59.324Z,3.40
2023-05-14T23:52:26.434Z,3.78
2023-05-14T23:54:54.769Z,3.75
2023-05-14T23:57:22.090Z,3.33
2023-05-14T23:59:49.074Z,3.75
